sensor_id;sensor_type;location;lat;lon;timestamp;P1;durP1;ratioP1;P2;durP2;ratioP2
52248;SDS011;38541;48.130;8.378;2023-06-10T00:02:01;3.65;;;3.35;;
52248;SDS011;38541;48.130;8.378;2023-06-10T00:04:27;3.60;;;3.30;;
52248;SDS011;38541;48.130;8.378;2023-06-10T00:06:54;3.50;;;3.20;;
52248;SDS011;38541;48.130;8.378;2023-06-10T00:09:21;3.05;;;2.85;;
52248;SDS011;38541;48.130;8.378;2023-06-10T00:11:48;3.80;;;3.40;;
52248;SDS011;38541;48.130;8.378;2023-06-10T00:14:15;3.78;;;3.47;;
52248;SDS011;38541;48.130;8.378;2023-06-10T00:16:42;3.42;;;3.22;;
52248;SDS011;38541;48.130;8.378;2023-06-10T00:19:11;4.18;;;3.45;;
52248;SDS011;38541;48.130;8.378;2023-06-10T00:21:40;4.32;;;3.92;;
52248;SDS011;38541;48.130;8.378;2023-06-10T00:24:07;4.13;;;3.83;;
52248;SDS011;38541;48.130;8.378;2023-06-10T00:26:39;3.42;;;3.22;;
52248;SDS011;38541;48.130;8.378;2023-06-10T00:29:07;3.78;;;3.47;;
52248;SDS011;38541;48.130;8.378;2023-06-10T00:31:34;3.60;;;3.30;;
52248;SDS011;38541;48.130;8.378;2023-06-10T00:34:05;3.95;;;3.55;;
52248;SDS011;38541;48.130;8.378;2023-06-10T00:36:33;4.00;;;3.70;;
52248;SDS011;38541;48.130;8.378;2023-06-10T00:38:59;4.82;;;3.85;;
52248;SDS011;38541;48.130;8.378;2023-06-10T00:41:26;5.28;;;3.60;;
52248;SDS011;38541;48.130;8.378;2023-06-10T00:43:52;3.60;;;3.30;;
52248;SDS011;38541;48.130;8.378;2023-06-10T00:46:19;3.80;;;3.50;;
52248;SDS011;38541;48.130;8.378;2023-06-10T00:48:47;4.47;;;4.07;;
52248;SDS011;38541;48.130;8.378;2023-06-10T00:51:14;4.43;;;4.00;;
52248;SDS011;38541;48.130;8.378;2023-06-10T00:53:42;4.60;;;3.90;;
52248;SDS011;38541;48.130;8.378;2023-06-10T00:56:10;3.92;;;3.63;;
52248;SDS011;38541;48.130;8.378;2023-06-10T00:58:36;4.60;;;4.20;;
52248;SDS011;38541;48.130;8.378;2023-06-10T01:01:03;4.43;;;4.03;;
52248;SDS011;38541;48.130;8.378;2023-06-10T01:03:33;4.03;;;3.72;;
52248;SDS011;38541;48.130;8.378;2023-06-10T01:06:08;4.47;;;3.90;;
52248;SDS011;38541;48.130;8.378;2023-06-10T01:11:49;4.00;;;3.57;;
52248;SDS011;38541;48.130;8.378;2023-06-10T01:14:34;5.15;;;3.85;;
52248;SDS011;38541;48.130;8.378;2023-06-10T01:17:02;4.28;;;3.95;;
52248;SDS011;38541;48.130;8.378;2023-06-10T01:19:29;5.03;;;4.25;;
52248;SDS011;38541;48.130;8.378;2023-06-10T01:21:57;3.75;;;3.53;;
52248;SDS011;38541;48.130;8.378;2023-06-10T01:24:27;4.53;;;4.13;;
52248;SDS011;38541;48.130;8.378;2023-06-10T01:26:55;4.13;;;3.83;;
52248;SDS011;38541;48.130;8.378;2023-06-10T01:29:31;4.65;;;4.25;;
52248;SDS011;38541;48.130;8.378;2023-06-10T01:32:05;4.45;;;4.15;;
52248;SDS011;38541;48.130;8.378;2023-06-10T01:34:45;3.85;;;3.55;;
52248;SDS011;38541;48.130;8.378;2023-06-10T01:37:13;5.03;;;3.95;;
52248;SDS011;38541;48.130;8.378;2023-06-10T01:39:44;4.80;;;4.25;;
52248;SDS011;38541;48.130;8.378;2023-06-10T01:42:12;4.32;;;3.88;;
52248;SDS011;38541;48.130;8.378;2023-06-10T01:44:39;4.05;;;3.75;;
52248;SDS011;38541;48.130;8.378;2023-06-10T01:47:07;4.50;;;4.10;;
52248;SDS011;38541;48.130;8.378;2023-06-10T01:49:35;4.43;;;4.03;;
52248;SDS011;38541;48.130;8.378;2023-06-10T01:52:01;4.80;;;4.40;;
52248;SDS011;38541;48.130;8.378;2023-06-10T01:54:28;4.30;;;3.90;;
52248;SDS011;38541;48.130;8.378;2023-06-10T01:56:55;4.82;;;4.32;;
52248;SDS011;38541;48.130;8.378;2023-06-10T01:59:22;4.90;;;4.50;;
52248;SDS011;38541;48.130;8.378;2023-06-10T02:01:48;4.82;;;4.43;;
52248;SDS011;38541;48.130;8.378;2023-06-10T02:04:15;5.30;;;4.50;;
52248;SDS011;38541;48.130;8.378;2023-06-10T02:06:42;5.55;;;4.97;;
52248;SDS011;38541;48.130;8.378;2023-06-10T02:09:09;5.50;;;5.00;;
52248;SDS011;38541;48.130;8.378;2023-06-10T02:11:35;5.07;;;4.68;;
52248;SDS011;38541;48.130;8.378;2023-06-10T02:14:02;4.88;;;4.30;;
52248;SDS011;38541;48.130;8.378;2023-06-10T02:16:29;4.63;;;4.05;;
52248;SDS011;38541;48.130;8.378;2023-06-10T02:18:57;4.55;;;4.22;;
52248;SDS011;38541;48.130;8.378;2023-06-10T02:21:23;5.63;;;4.45;;
52248;SDS011;38541;48.130;8.378;2023-06-10T02:23:50;4.78;;;4.28;;
52248;SDS011;38541;48.130;8.378;2023-06-10T02:26:16;4.43;;;4.13;;
52248;SDS011;38541;48.130;8.378;2023-06-10T02:28:43;4.65;;;4.28;;
52248;SDS011;38541;48.130;8.378;2023-06-10T02:31:11;4.82;;;4.43;;
52248;SDS011;38541;48.130;8.378;2023-06-10T02:33:38;5.13;;;4.72;;
52248;SDS011;38541;48.130;8.378;2023-06-10T02:36:07;4.82;;;4.43;;
52248;SDS011;38541;48.130;8.378;2023-06-10T02:38:33;5.45;;;4.95;;
52248;SDS011;38541;48.130;8.378;2023-06-10T02:41:00;5.13;;;4.70;;
52248;SDS011;38541;48.130;8.378;2023-06-10T02:43:27;4.95;;;4.55;;
52248;SDS011;38541;48.130;8.378;2023-06-10T02:45:54;5.13;;;4.72;;
52248;SDS011;38541;48.130;8.378;2023-06-10T02:48:23;5.40;;;4.90;;
52248;SDS011;38541;48.130;8.378;2023-06-10T02:50:50;5.28;;;4.78;;
52248;SDS011;38541;48.130;8.378;2023-06-10T02:53:23;4.82;;;4.43;;
52248;SDS011;38541;48.130;8.378;2023-06-10T02:55:55;5.13;;;4.50;;
52248;SDS011;38541;48.130;8.378;2023-06-10T02:58:22;4.93;;;4.53;;
52248;SDS011;38541;48.130;8.378;2023-06-10T03:00:49;4.32;;;4.03;;
52248;SDS011;38541;48.130;8.378;2023-06-10T03:03:16;5.15;;;4.68;;
52248;SDS011;38541;48.130;8.378;2023-06-10T03:05:55;5.63;;;5.13;;
52248;SDS011;38541;48.130;8.378;2023-06-10T03:08:23;5.22;;;4.72;;
52248;SDS011;38541;48.130;8.378;2023-06-10T03:10:51;5.82;;;5.25;;
52248;SDS011;38541;48.130;8.378;2023-06-10T03:13:18;4.82;;;4.38;;
52248;SDS011;38541;48.130;8.378;2023-06-10T03:15:45;4.85;;;4.45;;
52248;SDS011;38541;48.130;8.378;2023-06-10T03:18:16;6.97;;;4.60;;
52248;SDS011;38541;48.130;8.378;2023-06-10T03:20:43;4.95;;;4.45;;
52248;SDS011;38541;48.130;8.378;2023-06-10T03:23:11;4.82;;;4.43;;
52248;SDS011;38541;48.130;8.378;2023-06-10T03:25:39;5.65;;;5.15;;
52248;SDS011;38541;48.130;8.378;2023-06-10T03:28:05;5.50;;;5.00;;
52248;SDS011;38541;48.130;8.378;2023-06-10T03:30:34;5.70;;;5.13;;
52248;SDS011;38541;48.130;8.378;2023-06-10T03:33:01;5.43;;;4.93;;
52248;SDS011;38541;48.130;8.378;2023-06-10T03:35:29;5.38;;;4.90;;
52248;SDS011;38541;48.130;8.378;2023-06-10T03:40:26;6.10;;;5.38;;
52248;SDS011;38541;48.130;8.378;2023-06-10T03:42:54;6.35;;;5.80;;
52248;SDS011;38541;48.130;8.378;2023-06-10T03:45:20;5.80;;;5.30;;
52248;SDS011;38541;48.130;8.378;2023-06-10T03:47:47;5.68;;;5.18;;
52248;SDS011;38541;48.130;8.378;2023-06-10T03:50:17;5.50;;;5.00;;
52248;SDS011;38541;48.130;8.378;2023-06-10T03:52:44;5.13;;;4.68;;
52248;SDS011;38541;48.130;8.378;2023-06-10T03:55:12;4.63;;;4.32;;
52248;SDS011;38541;48.130;8.378;2023-06-10T03:57:43;4.70;;;4.30;;
52248;SDS011;38541;48.130;8.378;2023-06-10T04:00:10;5.38;;;4.90;;
52248;SDS011;38541;48.130;8.378;2023-06-10T04:02:41;5.93;;;5.43;;
52248;SDS011;38541;48.130;8.378;2023-06-10T04:05:19;5.90;;;5.30;;
52248;SDS011;38541;48.130;8.378;2023-06-10T04:07:51;6.47;;;5.70;;
52248;SDS011;38541;48.130;8.378;2023-06-10T04:10:17;5.93;;;5.32;;
52248;SDS011;38541;48.130;8.378;2023-06-10T04:12:44;5.20;;;4.80;;
52248;SDS011;38541;48.130;8.378;2023-06-10T04:15:10;5.95;;;5.45;;
52248;SDS011;38541;48.130;8.378;2023-06-10T04:17:38;5.43;;;4.93;;
52248;SDS011;38541;48.130;8.378;2023-06-10T04:20:05;7.60;;;6.90;;
52248;SDS011;38541;48.130;8.378;2023-06-10T04:22:35;10.57;;;9.18;;
52248;SDS011;38541;48.130;8.378;2023-06-10T04:25:02;15.93;;;11.05;;
52248;SDS011;38541;48.130;8.378;2023-06-10T04:27:30;13.13;;;8.35;;
52248;SDS011;38541;48.130;8.378;2023-06-10T04:29:57;14.25;;;8.77;;
52248;SDS011;38541;48.130;8.378;2023-06-10T04:32:23;8.82;;;6.60;;
52248;SDS011;38541;48.130;8.378;2023-06-10T04:34:50;8.55;;;6.32;;
52248;SDS011;38541;48.130;8.378;2023-06-10T04:37:17;7.22;;;6.50;;
52248;SDS011;38541;48.130;8.378;2023-06-10T04:39:44;6.57;;;5.97;;
52248;SDS011;38541;48.130;8.378;2023-06-10T04:42:11;7.70;;;7.00;;
52248;SDS011;38541;48.130;8.378;2023-06-10T04:44:39;7.22;;;6.53;;
52248;SDS011;38541;48.130;8.378;2023-06-10T04:47:06;7.43;;;6.72;;
52248;SDS011;38541;48.130;8.378;2023-06-10T04:49:34;7.05;;;6.45;;
52248;SDS011;38541;48.130;8.378;2023-06-10T04:52:02;6.70;;;6.10;;
52248;SDS011;38541;48.130;8.378;2023-06-10T04:54:34;7.00;;;6.38;;
52248;SDS011;38541;48.130;8.378;2023-06-10T04:57:01;7.32;;;5.82;;
52248;SDS011;38541;48.130;8.378;2023-06-10T04:59:27;6.45;;;5.90;;
52248;SDS011;38541;48.130;8.378;2023-06-10T05:01:54;7.10;;;6.50;;
52248;SDS011;38541;48.130;8.378;2023-06-10T05:04:21;7.65;;;7.05;;
52248;SDS011;38541;48.130;8.378;2023-06-10T05:06:47;7.35;;;6.60;;
52248;SDS011;38541;48.130;8.378;2023-06-10T05:09:14;7.72;;;6.93;;
52248;SDS011;38541;48.130;8.378;2023-06-10T05:11:40;7.28;;;6.68;;
52248;SDS011;38541;48.130;8.378;2023-06-10T05:14:07;7.22;;;6.63;;
52248;SDS011;38541;48.130;8.378;2023-06-10T05:16:34;7.05;;;6.45;;
52248;SDS011;38541;48.130;8.378;2023-06-10T05:19:00;7.03;;;6.43;;
52248;SDS011;38541;48.130;8.378;2023-06-10T05:21:27;7.32;;;6.72;;
52248;SDS011;38541;48.130;8.378;2023-06-10T05:23:53;7.55;;;6.75;;
52248;SDS011;38541;48.130;8.378;2023-06-10T05:26:20;7.10;;;6.47;;
52248;SDS011;38541;48.130;8.378;2023-06-10T05:28:47;8.00;;;6.15;;
52248;SDS011;38541;48.130;8.378;2023-06-10T05:31:13;7.20;;;6.47;;
52248;SDS011;38541;48.130;8.378;2023-06-10T05:33:40;7.53;;;6.90;;
52248;SDS011;38541;48.130;8.378;2023-06-10T05:36:06;9.95;;;6.95;;
52248;SDS011;38541;48.130;8.378;2023-06-10T05:38:33;7.55;;;6.70;;
52248;SDS011;38541;48.130;8.378;2023-06-10T05:40:59;6.85;;;6.10;;
52248;SDS011;38541;48.130;8.378;2023-06-10T05:43:26;7.70;;;7.00;;
52248;SDS011;38541;48.130;8.378;2023-06-10T05:45:52;6.85;;;6.25;;
52248;SDS011;38541;48.130;8.378;2023-06-10T05:48:19;7.55;;;6.85;;
52248;SDS011;38541;48.130;8.378;2023-06-10T05:50:46;7.55;;;6.70;;
52248;SDS011;38541;48.130;8.378;2023-06-10T05:53:14;8.18;;;7.38;;
52248;SDS011;38541;48.130;8.378;2023-06-10T05:55:45;7.45;;;6.60;;
52248;SDS011;38541;48.130;8.378;2023-06-10T05:58:12;6.97;;;6.38;;
52248;SDS011;38541;48.130;8.378;2023-06-10T06:00:40;6.97;;;6.28;;
52248;SDS011;38541;48.130;8.378;2023-06-10T06:03:07;7.13;;;6.07;;
52248;SDS011;38541;48.130;8.378;2023-06-10T06:05:36;6.38;;;5.82;;
52248;SDS011;38541;48.130;8.378;2023-06-10T06:08:04;6.90;;;6.22;;
52248;SDS011;38541;48.130;8.378;2023-06-10T06:10:31;8.23;;;6.22;;
52248;SDS011;38541;48.130;8.378;2023-06-10T06:12:58;7.78;;;5.47;;
52248;SDS011;38541;48.130;8.378;2023-06-10T06:15:26;5.90;;;5.45;;
52248;SDS011;38541;48.130;8.378;2023-06-10T06:17:53;5.75;;;5.18;;
52248;SDS011;38541;48.130;8.378;2023-06-10T06:20:20;5.40;;;4.90;;
52248;SDS011;38541;48.130;8.378;2023-06-10T06:22:46;5.50;;;4.97;;
52248;SDS011;38541;48.130;8.378;2023-06-10T06:25:13;5.40;;;4.90;;
52248;SDS011;38541;48.130;8.378;2023-06-10T06:27:40;6.18;;;5.65;;
52248;SDS011;38541;48.130;8.378;2023-06-10T06:30:07;7.30;;;6.53;;
52248;SDS011;38541;48.130;8.378;2023-06-10T06:32:34;5.93;;;5.43;;
52248;SDS011;38541;48.130;8.378;2023-06-10T06:35:01;5.90;;;5.40;;
52248;SDS011;38541;48.130;8.378;2023-06-10T06:37:27;6.00;;;5.47;;
52248;SDS011;38541;48.130;8.378;2023-06-10T06:40:09;4.50;;;4.07;;
52248;SDS011;38541;48.130;8.378;2023-06-10T06:42:36;5.22;;;4.82;;
52248;SDS011;38541;48.130;8.378;2023-06-10T06:45:13;5.13;;;4.68;;
52248;SDS011;38541;48.130;8.378;2023-06-10T06:47:39;8.07;;;5.05;;
52248;SDS011;38541;48.130;8.378;2023-06-10T06:50:06;5.35;;;4.95;;
52248;SDS011;38541;48.130;8.378;2023-06-10T06:52:33;5.57;;;5.07;;
52248;SDS011;38541;48.130;8.378;2023-06-10T06:54:59;7.30;;;5.60;;
52248;SDS011;38541;48.130;8.378;2023-06-10T06:57:26;5.15;;;4.65;;
52248;SDS011;38541;48.130;8.378;2023-06-10T06:59:52;5.53;;;5.03;;
52248;SDS011;38541;48.130;8.378;2023-06-10T07:02:19;5.32;;;4.93;;
52248;SDS011;38541;48.130;8.378;2023-06-10T07:04:46;5.68;;;5.18;;
52248;SDS011;38541;48.130;8.378;2023-06-10T07:07:15;5.90;;;5.32;;
52248;SDS011;38541;48.130;8.378;2023-06-10T07:09:42;5.72;;;5.22;;
52248;SDS011;38541;48.130;8.378;2023-06-10T07:12:08;7.10;;;4.70;;
52248;SDS011;38541;48.130;8.378;2023-06-10T07:14:35;4.57;;;4.18;;
52248;SDS011;38541;48.130;8.378;2023-06-10T07:17:02;5.28;;;4.88;;
52248;SDS011;38541;48.130;8.378;2023-06-10T07:19:28;5.53;;;5.03;;
52248;SDS011;38541;48.130;8.378;2023-06-10T07:21:55;5.28;;;4.78;;
52248;SDS011;38541;48.130;8.378;2023-06-10T07:24:21;5.43;;;5.00;;
52248;SDS011;38541;48.130;8.378;2023-06-10T07:26:48;5.18;;;4.70;;
52248;SDS011;38541;48.130;8.378;2023-06-10T07:29:14;4.68;;;4.30;;
52248;SDS011;38541;48.130;8.378;2023-06-10T07:31:41;5.97;;;5.47;;
52248;SDS011;38541;48.130;8.378;2023-06-10T07:34:08;5.10;;;4.65;;
52248;SDS011;38541;48.130;8.378;2023-06-10T07:36:34;5.80;;;5.03;;
52248;SDS011;38541;48.130;8.378;2023-06-10T07:39:01;5.15;;;4.75;;
52248;SDS011;38541;48.130;8.378;2023-06-10T07:41:27;7.80;;;4.57;;
52248;SDS011;38541;48.130;8.378;2023-06-10T07:43:54;5.20;;;4.70;;
52248;SDS011;38541;48.130;8.378;2023-06-10T07:46:22;5.32;;;4.82;;
52248;SDS011;38541;48.130;8.378;2023-06-10T07:48:49;4.85;;;4.45;;
52248;SDS011;38541;48.130;8.378;2023-06-10T07:51:17;5.55;;;5.00;;
52248;SDS011;38541;48.130;8.378;2023-06-10T07:53:43;4.78;;;4.38;;
52248;SDS011;38541;48.130;8.378;2023-06-10T07:56:10;5.13;;;4.72;;
52248;SDS011;38541;48.130;8.378;2023-06-10T07:58:36;5.13;;;4.70;;
52248;SDS011;38541;48.130;8.378;2023-06-10T08:01:03;5.18;;;4.78;;
52248;SDS011;38541;48.130;8.378;2023-06-10T08:03:29;5.00;;;4.50;;
52248;SDS011;38541;48.130;8.378;2023-06-10T08:05:56;4.72;;;4.32;;
52248;SDS011;38541;48.130;8.378;2023-06-10T08:08:22;5.35;;;4.85;;
52248;SDS011;38541;48.130;8.378;2023-06-10T08:10:49;5.10;;;4.70;;
52248;SDS011;38541;48.130;8.378;2023-06-10T08:13:16;5.32;;;4.82;;
52248;SDS011;38541;48.130;8.378;2023-06-10T08:15:43;4.90;;;4.43;;
52248;SDS011;38541;48.130;8.378;2023-06-10T08:18:09;5.22;;;4.80;;
52248;SDS011;38541;48.130;8.378;2023-06-10T08:20:36;6.28;;;4.80;;
52248;SDS011;38541;48.130;8.378;2023-06-10T08:23:02;5.43;;;5.00;;
52248;SDS011;38541;48.130;8.378;2023-06-10T08:25:29;4.80;;;4.40;;
52248;SDS011;38541;48.130;8.378;2023-06-10T08:27:55;5.60;;;4.13;;
52248;SDS011;38541;48.130;8.378;2023-06-10T08:30:23;4.53;;;4.10;;
52248;SDS011;38541;48.130;8.378;2023-06-10T08:32:50;4.30;;;3.97;;
52248;SDS011;38541;48.130;8.378;2023-06-10T08:35:18;5.65;;;4.20;;
52248;SDS011;38541;48.130;8.378;2023-06-10T08:37:44;4.78;;;4.38;;
52248;SDS011;38541;48.130;8.378;2023-06-10T08:40:11;4.72;;;4.22;;
52248;SDS011;38541;48.130;8.378;2023-06-10T08:45:48;5.03;;;4.53;;
52248;SDS011;38541;48.130;8.378;2023-06-10T08:48:16;4.53;;;4.13;;
52248;SDS011;38541;48.130;8.378;2023-06-10T08:50:45;4.18;;;3.88;;
52248;SDS011;38541;48.130;8.378;2023-06-10T08:53:14;4.57;;;4.18;;
52248;SDS011;38541;48.130;8.378;2023-06-10T08:55:44;4.00;;;3.70;;
52248;SDS011;38541;48.130;8.378;2023-06-10T08:58:15;5.07;;;4.57;;
52248;SDS011;38541;48.130;8.378;2023-06-10T09:00:42;4.90;;;4.28;;
52248;SDS011;38541;48.130;8.378;2023-06-10T09:03:09;4.82;;;4.43;;
52248;SDS011;38541;48.130;8.378;2023-06-10T09:05:35;5.05;;;4.57;;
52248;SDS011;38541;48.130;8.378;2023-06-10T09:08:03;5.13;;;4.72;;
52248;SDS011;38541;48.130;8.378;2023-06-10T09:10:32;5.15;;;4.75;;
52248;SDS011;38541;48.130;8.378;2023-06-10T09:12:59;5.10;;;4.55;;
52248;SDS011;38541;48.130;8.378;2023-06-10T09:15:25;4.88;;;4.47;;
52248;SDS011;38541;48.130;8.378;2023-06-10T09:17:53;5.25;;;4.68;;
52248;SDS011;38541;48.130;8.378;2023-06-10T09:20:19;4.28;;;3.97;;
52248;SDS011;38541;48.130;8.378;2023-06-10T09:22:46;4.65;;;4.25;;
52248;SDS011;38541;48.130;8.378;2023-06-10T09:25:12;5.65;;;5.03;;
52248;SDS011;38541;48.130;8.378;2023-06-10T09:27:46;4.57;;;4.18;;
52248;SDS011;38541;48.130;8.378;2023-06-10T09:30:29;5.43;;;4.45;;
52248;SDS011;38541;48.130;8.378;2023-06-10T09:32:57;5.15;;;4.53;;
52248;SDS011;38541;48.130;8.378;2023-06-10T09:35:27;4.97;;;4.57;;
52248;SDS011;38541;48.130;8.378;2023-06-10T09:37:58;5.05;;;4.65;;
52248;SDS011;38541;48.130;8.378;2023-06-10T09:40:26;5.22;;;4.82;;
52248;SDS011;38541;48.130;8.378;2023-06-10T09:42:55;4.68;;;4.28;;
52248;SDS011;38541;48.130;8.378;2023-06-10T09:45:27;5.10;;;4.70;;
52248;SDS011;38541;48.130;8.378;2023-06-10T09:47:56;4.25;;;3.95;;
52248;SDS011;38541;48.130;8.378;2023-06-10T09:50:23;5.03;;;4.53;;
52248;SDS011;38541;48.130;8.378;2023-06-10T09:52:50;5.00;;;4.60;;
52248;SDS011;38541;48.130;8.378;2023-06-10T09:55:17;4.53;;;4.18;;
52248;SDS011;38541;48.130;8.378;2023-06-10T09:57:44;4.70;;;4.32;;
52248;SDS011;38541;48.130;8.378;2023-06-10T10:00:14;4.40;;;4.00;;
52248;SDS011;38541;48.130;8.378;2023-06-10T10:05:15;6.25;;;4.90;;
52248;SDS011;38541;48.130;8.378;2023-06-10T10:07:43;5.15;;;4.75;;
52248;SDS011;38541;48.130;8.378;2023-06-10T10:10:11;5.05;;;4.65;;
52248;SDS011;38541;48.130;8.378;2023-06-10T10:12:38;4.90;;;4.50;;
52248;SDS011;38541;48.130;8.378;2023-06-10T10:15:06;4.55;;;4.18;;
52248;SDS011;38541;48.130;8.378;2023-06-10T10:17:40;4.60;;;4.20;;
52248;SDS011;38541;48.130;8.378;2023-06-10T10:20:12;5.07;;;4.68;;
52248;SDS011;38541;48.130;8.378;2023-06-10T10:22:41;4.93;;;4.53;;
52248;SDS011;38541;48.130;8.378;2023-06-10T10:25:13;5.00;;;4.60;;
52248;SDS011;38541;48.130;8.378;2023-06-10T10:27:51;4.35;;;4.03;;
52248;SDS011;38541;48.130;8.378;2023-06-10T10:30:21;4.55;;;4.15;;
52248;SDS011;38541;48.130;8.378;2023-06-10T10:32:59;4.35;;;3.97;;
52248;SDS011;38541;48.130;8.378;2023-06-10T10:35:35;4.07;;;3.78;;
52248;SDS011;38541;48.130;8.378;2023-06-10T10:38:02;5.15;;;4.10;;
52248;SDS011;38541;48.130;8.378;2023-06-10T10:40:29;4.63;;;4.22;;
52248;SDS011;38541;48.130;8.378;2023-06-10T10:42:58;4.82;;;4.47;;
52248;SDS011;38541;48.130;8.378;2023-06-10T10:45:27;4.50;;;4.10;;
52248;SDS011;38541;48.130;8.378;2023-06-10T10:47:55;4.53;;;4.13;;
52248;SDS011;38541;48.130;8.378;2023-06-10T10:50:22;4.38;;;3.97;;
52248;SDS011;38541;48.130;8.378;2023-06-10T10:55:20;4.53;;;4.13;;
52248;SDS011;38541;48.130;8.378;2023-06-10T10:57:54;4.90;;;4.50;;
52248;SDS011;38541;48.130;8.378;2023-06-10T11:00:31;4.75;;;4.35;;
52248;SDS011;38541;48.130;8.378;2023-06-10T11:03:12;4.15;;;3.83;;
52248;SDS011;38541;48.130;8.378;2023-06-10T11:05:41;3.97;;;3.65;;
52248;SDS011;38541;48.130;8.378;2023-06-10T11:09:00;3.95;;;3.65;;
52248;SDS011;38541;48.130;8.378;2023-06-10T11:11:17;4.38;;;4.07;;
52248;SDS011;38541;48.130;8.378;2023-06-10T11:13:57;4.15;;;3.85;;
52248;SDS011;38541;48.130;8.378;2023-06-10T11:16:27;3.85;;;3.55;;
52248;SDS011;38541;48.130;8.378;2023-06-10T11:18:54;4.57;;;4.07;;
52248;SDS011;38541;48.130;8.378;2023-06-10T11:21:24;4.57;;;4.18;;
52248;SDS011;38541;48.130;8.378;2023-06-10T11:23:57;4.68;;;4.28;;
52248;SDS011;38541;48.130;8.378;2023-06-10T11:33:55;4.45;;;4.13;;
52248;SDS011;38541;48.130;8.378;2023-06-10T11:36:23;4.22;;;3.92;;
52248;SDS011;38541;48.130;8.378;2023-06-10T11:38:53;3.97;;;3.67;;
52248;SDS011;38541;48.130;8.378;2023-06-10T11:41:23;4.70;;;4.30;;
52248;SDS011;38541;48.130;8.378;2023-06-10T11:43:52;4.63;;;3.97;;
52248;SDS011;38541;48.130;8.378;2023-06-10T11:46:22;4.80;;;4.38;;
52248;SDS011;38541;48.130;8.378;2023-06-10T11:48:49;4.93;;;3.80;;
52248;SDS011;38541;48.130;8.378;2023-06-10T11:51:20;4.90;;;4.50;;
52248;SDS011;38541;48.130;8.378;2023-06-10T11:53:47;5.40;;;5.00;;
52248;SDS011;38541;48.130;8.378;2023-06-10T11:56:25;4.40;;;4.00;;
52248;SDS011;38541;48.130;8.378;2023-06-10T11:58:53;4.20;;;3.80;;
52248;SDS011;38541;48.130;8.378;2023-06-10T12:01:25;3.83;;;3.47;;
52248;SDS011;38541;48.130;8.378;2023-06-10T12:06:45;3.90;;;3.60;;
52248;SDS011;38541;48.130;8.378;2023-06-10T12:09:21;3.97;;;3.67;;
52248;SDS011;38541;48.130;8.378;2023-06-10T12:12:02;4.45;;;3.95;;
52248;SDS011;38541;48.130;8.378;2023-06-10T12:20:02;3.50;;;3.30;;
52248;SDS011;38541;48.130;8.378;2023-06-10T12:22:40;3.50;;;3.10;;
52248;SDS011;38541;48.130;8.378;2023-06-10T12:25:09;4.43;;;3.70;;
52248;SDS011;38541;48.130;8.378;2023-06-10T12:27:37;4.05;;;3.65;;
52248;SDS011;38541;48.130;8.378;2023-06-10T12:30:05;3.90;;;3.20;;
52248;SDS011;38541;48.130;8.378;2023-06-10T12:35:05;3.72;;;3.25;;
52248;SDS011;38541;48.130;8.378;2023-06-10T12:37:33;2.60;;;2.40;;
52248;SDS011;38541;48.130;8.378;2023-06-10T12:40:03;2.60;;;2.40;;
52248;SDS011;38541;48.130;8.378;2023-06-10T12:42:37;2.25;;;2.08;;
52248;SDS011;38541;48.130;8.378;2023-06-10T12:45:05;3.15;;;2.55;;
52248;SDS011;38541;48.130;8.378;2023-06-10T12:47:35;2.50;;;2.30;;
52248;SDS011;38541;48.130;8.378;2023-06-10T12:50:04;2.58;;;2.38;;
52248;SDS011;38541;48.130;8.378;2023-06-10T12:52:32;2.50;;;2.30;;
52248;SDS011;38541;48.130;8.378;2023-06-10T12:54:58;2.55;;;2.35;;
52248;SDS011;38541;48.130;8.378;2023-06-10T12:57:26;2.80;;;2.60;;
52248;SDS011;38541;48.130;8.378;2023-06-10T12:59:53;2.47;;;2.08;;
52248;SDS011;38541;48.130;8.378;2023-06-10T13:02:19;2.45;;;2.25;;
52248;SDS011;38541;48.130;8.378;2023-06-10T13:04:46;2.40;;;2.30;;
52248;SDS011;38541;48.130;8.378;2023-06-10T13:07:14;2.70;;;2.50;;
52248;SDS011;38541;48.130;8.378;2023-06-10T13:09:41;3.45;;;2.60;;
52248;SDS011;38541;48.130;8.378;2023-06-10T13:12:08;2.55;;;2.35;;
52248;SDS011;38541;48.130;8.378;2023-06-10T13:14:41;2.72;;;2.53;;
52248;SDS011;38541;48.130;8.378;2023-06-10T13:17:08;2.58;;;2.40;;
52248;SDS011;38541;48.130;8.378;2023-06-10T13:19:34;2.58;;;2.38;;
52248;SDS011;38541;48.130;8.378;2023-06-10T13:22:01;2.30;;;2.10;;
52248;SDS011;38541;48.130;8.378;2023-06-10T13:24:28;2.20;;;2.10;;
52248;SDS011;38541;48.130;8.378;2023-06-10T13:26:54;2.30;;;2.10;;
52248;SDS011;38541;48.130;8.378;2023-06-10T13:29:22;2.03;;;1.92;;
52248;SDS011;38541;48.130;8.378;2023-06-10T13:31:49;2.13;;;2.03;;
52248;SDS011;38541;48.130;8.378;2023-06-10T13:34:16;2.13;;;2.03;;
52248;SDS011;38541;48.130;8.378;2023-06-10T13:36:42;2.20;;;2.05;;
52248;SDS011;38541;48.130;8.378;2023-06-10T13:39:09;1.95;;;1.85;;
52248;SDS011;38541;48.130;8.378;2023-06-10T13:41:35;2.38;;;1.90;;
52248;SDS011;38541;48.130;8.378;2023-06-10T13:44:02;2.08;;;1.98;;
52248;SDS011;38541;48.130;8.378;2023-06-10T13:46:29;1.77;;;1.65;;
52248;SDS011;38541;48.130;8.378;2023-06-10T13:48:55;1.70;;;1.60;;
52248;SDS011;38541;48.130;8.378;2023-06-10T13:51:22;1.80;;;1.70;;
52248;SDS011;38541;48.130;8.378;2023-06-10T13:53:48;1.85;;;1.75;;
52248;SDS011;38541;48.130;8.378;2023-06-10T13:56:15;1.80;;;1.70;;
52248;SDS011;38541;48.130;8.378;2023-06-10T13:58:41;2.10;;;2.00;;
52248;SDS011;38541;48.130;8.378;2023-06-10T14:01:09;1.98;;;1.77;;
52248;SDS011;38541;48.130;8.378;2023-06-10T14:03:35;2.05;;;1.92;;
52248;SDS011;38541;48.130;8.378;2023-06-10T14:06:02;1.75;;;1.63;;
52248;SDS011;38541;48.130;8.378;2023-06-10T14:08:29;1.95;;;1.85;;
52248;SDS011;38541;48.130;8.378;2023-06-10T14:10:56;1.70;;;1.60;;
52248;SDS011;38541;48.130;8.378;2023-06-10T14:13:22;1.90;;;1.80;;
52248;SDS011;38541;48.130;8.378;2023-06-10T14:15:49;1.95;;;1.85;;
52248;SDS011;38541;48.130;8.378;2023-06-10T14:18:16;1.67;;;1.58;;
52248;SDS011;38541;48.130;8.378;2023-06-10T14:20:42;2.08;;;1.95;;
52248;SDS011;38541;48.130;8.378;2023-06-10T14:23:09;1.90;;;1.80;;
52248;SDS011;38541;48.130;8.378;2023-06-10T14:25:35;2.03;;;1.92;;
52248;SDS011;38541;48.130;8.378;2023-06-10T14:28:02;1.88;;;1.77;;
52248;SDS011;38541;48.130;8.378;2023-06-10T14:30:28;1.90;;;1.80;;
52248;SDS011;38541;48.130;8.378;2023-06-10T14:32:55;1.90;;;1.80;;
52248;SDS011;38541;48.130;8.378;2023-06-10T14:35:22;2.75;;;2.08;;
52248;SDS011;38541;48.130;8.378;2023-06-10T14:37:49;2.00;;;1.90;;
52248;SDS011;38541;48.130;8.378;2023-06-10T14:40:15;2.00;;;1.90;;
52248;SDS011;38541;48.130;8.378;2023-06-10T14:42:42;2.45;;;2.25;;
52248;SDS011;38541;48.130;8.378;2023-06-10T14:45:09;2.20;;;2.00;;
52248;SDS011;38541;48.130;8.378;2023-06-10T14:47:37;2.20;;;2.10;;
52248;SDS011;38541;48.130;8.378;2023-06-10T14:50:03;2.00;;;1.90;;
52248;SDS011;38541;48.130;8.378;2023-06-10T14:52:30;2.60;;;2.40;;
52248;SDS011;38541;48.130;8.378;2023-06-10T14:54:57;2.03;;;1.92;;
52248;SDS011;38541;48.130;8.378;2023-06-10T14:57:23;2.03;;;1.92;;
52248;SDS011;38541;48.130;8.378;2023-06-10T14:59:50;2.10;;;2.00;;
52248;SDS011;38541;48.130;8.378;2023-06-10T15:02:17;2.10;;;1.98;;
52248;SDS011;38541;48.130;8.378;2023-06-10T15:04:43;2.08;;;1.98;;
52248;SDS011;38541;48.130;8.378;2023-06-10T15:07:09;2.20;;;2.10;;
52248;SDS011;38541;48.130;8.378;2023-06-10T15:09:36;4.63;;;2.33;;
52248;SDS011;38541;48.130;8.378;2023-06-10T15:12:03;2.20;;;2.10;;
52248;SDS011;38541;48.130;8.378;2023-06-10T15:14:30;2.28;;;2.17;;
52248;SDS011;38541;48.130;8.378;2023-06-10T15:16:56;2.45;;;2.35;;
52248;SDS011;38541;48.130;8.378;2023-06-10T15:19:25;2.70;;;2.50;;
52248;SDS011;38541;48.130;8.378;2023-06-10T15:21:53;2.20;;;2.10;;
52248;SDS011;38541;48.130;8.378;2023-06-10T15:24:19;2.03;;;1.92;;
52248;SDS011;38541;48.130;8.378;2023-06-10T15:26:46;2.15;;;2.03;;